Accueil
METAR-TAF:

METAR-TAF

Aéroports :

Base aérienne

Tulln an der Donau, Autriche

latitude: 48-19N, longitude: 016-07E, altitude: 175 m

METAR: absent

Heure: 02:49 (01:49 UTC)

Prévision

Le bulletin a été fait il y a 14 heures et 34 minutes, à 11:15 UTC
Prévision valable du 05 à 12 UTC au 05 à 21 UTC
Vent 5 kt de sud-est
Visibilité: 9000 m
Nuages fragmentés à une hauteur de 1000 ft
Temporairement
du 05 à 12 UTC au 05 à 14 UTC
Visibilité: 6000 m
Quelques nuages à une hauteur de 600 ft
Ciel couvert à une hauteur de 700 ft
Evoluant progressivement
du 05 à 13 UTC au 05 à 15 UTC
Vent 5 kt de ouest/sud-ouest
Temporairement
du 05 à 17 UTC au 05 à 21 UTC
Quelques nuages à une hauteur de 1000 ft
Nuages fragmentés à une hauteur de 2000 ft
faibles averses de pluie

TAF: LOXT 051115Z 0512/0521 13005KT 9000 BKN010 TEMPO 0512/0514 6000 FEW006 OVC007 BECMG 0513/0515 24005KT TEMPO 0517/0521 -SHRA FEW010 BKN020

Observations et prévisions météorologiques de plus de 4000 aéroports (messages METAR et TAF).

Les stations disponibles sont représentées par des disques jaunes et rouges sur la carte.

Passer la souris dessus pour voir le nom de la station.

Cliquer dessus pour voir les observations et prévisions météorologiques.

Pour changer de carte: cliquez sur les boutons verts avec une croix noire pour zoomer, sur le bouton vert avec un tiret pour effectuer un zoom arrière, ou sur les flèches vertes pour les cartes adjacentes.


METAR-TAF: